Perkins, Georgia
Current Conditions -  °F | °C
As of 2:55 PM on Sunday 23 Nov 2014 (Local Time) from KJYL Reporting Station
Overcast Overcast  
Wind Chill: 66°   Ceiling: 500
Heat Index: 66°   Visibility: 7mi
Dew Point: 65°   Wind: 10mph
Humidity: 98%   Direction: 110°ESE
Pressure: 29.86"   Gusts: NA
Location:  32.91°N, 81.95°W
Report Text: KJYL 231955Z AUTO 11009KT 7SM OVC005 19/19 A2986 RMK AO2 T01900186
Loading
Personal Weather Stations






























Interactive Weather Map New forecast layout! Learn more

10-Day Weather Forecast

Advertisements
Track Severe Weather on mobile